Time;durP1;ratioP1;P1;durP2;ratioP2;P2;SDS_P1;SDS_P2;PMS_P1;PMS_P2;Temp;Humidity;BMP_temperature;BMP_pressure;BME280_temperature;BME280_humidity;BME280_pressure;Samples;Min_cycle;Max_cycle;Signal;HPM_P1;HPM_P2
2021/08/25 00:01:06;;;;;;;10.50;9.50;;;15.80;99.90;;;;;;4991348;28;20694;-51
2021/08/25 00:03:32;;;;;;;10.38;9.48;;;15.70;99.90;;;;;;4991462;28;20683;-52
2021/08/25 00:05:58;;;;;;;10.65;9.75;;;16.00;99.90;;;;;;4989771;28;20338;-51
2021/08/25 00:08:24;;;;;;;10.47;9.33;;;15.90;99.90;;;;;;4991689;28;20214;-52
2021/08/25 00:10:49;;;;;;;10.53;9.60;;;15.80;99.90;;;;;;4989711;28;20443;-51
2021/08/25 00:13:15;;;;;;;10.10;9.07;;;15.70;99.90;;;;;;4991738;28;20275;-52
2021/08/25 00:15:42;;;;;;;10.80;9.13;;;15.70;99.90;;;;;;4991080;28;20298;-51
2021/08/25 00:18:10;;;;;;;10.38;9.40;;;15.60;99.90;;;;;;4990314;28;20529;-52
2021/08/25 00:20:36;;;;;;;9.55;8.65;;;15.70;99.90;;;;;;4984332;28;20198;-51
2021/08/25 00:23:02;;;;;;;9.88;9.00;;;15.50;99.90;;;;;;4991379;28;20230;-52
2021/08/25 00:25:28;;;;;;;9.97;9.07;;;15.30;99.90;;;;;;4990577;28;20242;-52
2021/08/25 00:27:54;;;;;;;10.02;9.05;;;15.50;99.90;;;;;;4989345;28;20521;-51
2021/08/25 00:30:21;;;;;;;10.77;9.68;;;15.30;99.90;;;;;;4989231;28;20193;-51
2021/08/25 00:32:47;;;;;;;10.70;9.80;;;15.30;99.90;;;;;;4991372;28;20715;-52
2021/08/25 00:35:13;;;;;;;10.77;9.77;;;15.20;99.90;;;;;;4989263;28;20179;-51
2021/08/25 00:37:39;;;;;;;11.17;10.17;;;15.20;99.90;;;;;;4990061;28;20566;-50
2021/08/25 00:40:05;;;;;;;10.93;9.83;;;15.30;99.90;;;;;;4989759;28;20183;-52
2021/08/25 00:42:31;;;;;;;12.60;11.40;;;15.30;99.90;;;;;;4984247;28;20947;-51
2021/08/25 00:45:03;;;;;;;11.10;9.97;;;15.10;99.90;;;;;;4991226;28;20270;-52
2021/08/25 00:47:32;;;;;;;10.75;9.65;;;15.20;99.90;;;;;;4990215;28;20770;-51
2021/08/25 00:49:58;;;;;;;10.85;9.85;;;15.20;99.90;;;;;;4985473;28;20190;-50
2021/08/25 00:52:23;;;;;;;10.87;9.70;;;15.40;99.90;;;;;;4991046;28;20187;-50
2021/08/25 00:54:49;;;;;;;10.80;9.60;;;15.30;99.90;;;;;;4990894;28;20194;-50
2021/08/25 00:57:15;;;;;;;11.40;10.40;;;15.30;99.90;;;;;;4987252;28;20240;-51
2021/08/25 00:59:41;;;;;;;11.20;10.10;;;15.10;99.90;;;;;;4987997;28;20194;-50
2021/08/25 01:02:29;;;;;;;11.77;10.70;;;15.30;99.90;;;;;;4990830;28;20179;-51
2021/08/25 01:04:59;;;;;;;12.15;11.05;;;15.30;99.90;;;;;;4991044;28;20542;-52
2021/08/25 01:07:31;;;;;;;11.23;10.23;;;15.20;99.90;;;;;;4985504;28;20211;-51
2021/08/25 01:09:57;;;;;;;11.48;10.38;;;15.00;99.90;;;;;;4988417;28;20179;-51
2021/08/25 01:12:27;;;;;;;11.67;10.57;;;15.00;99.90;;;;;;4990132;28;20552;-51
2021/08/25 01:14:53;;;;;;;11.48;10.48;;;15.20;99.90;;;;;;4991167;28;20211;-51
2021/08/25 01:17:21;;;;;;;10.38;9.38;;;15.00;99.90;;;;;;4989311;28;20216;-51
2021/08/25 01:20:03;;;;;;;10.70;9.70;;;15.20;99.90;;;;;;4987042;28;20250;-50
2021/08/25 01:22:29;;;;;;;11.80;10.70;;;15.10;99.90;;;;;;4990117;28;20188;-50
2021/08/25 01:24:55;;;;;;;11.57;10.47;;;14.80;99.90;;;;;;4990754;28;20210;-51
2021/08/25 01:27:24;;;;;;;10.95;9.95;;;14.90;99.90;;;;;;4989298;28;20776;-50
2021/08/25 01:29:51;;;;;;;11.40;10.23;;;14.80;99.90;;;;;;4981041;28;20262;-50
2021/08/25 01:32:17;;;;;;;11.80;10.60;;;14.80;99.90;;;;;;4990638;28;20207;-51
2021/08/25 01:34:49;;;;;;;10.80;9.90;;;15.10;99.90;;;;;;4987013;28;20674;-51
2021/08/25 01:37:15;;;;;;;11.80;10.60;;;15.10;99.90;;;;;;4989459;28;20250;-50
2021/08/25 01:39:40;;;;;;;11.53;10.37;;;14.60;99.90;;;;;;4988840;28;20215;-51
2021/08/25 01:42:06;;;;;;;10.80;9.83;;;14.80;99.90;;;;;;4982581;28;20565;-51
2021/08/25 01:44:32;;;;;;;10.60;9.53;;;14.80;99.90;;;;;;4990880;28;20720;-51
2021/08/25 01:46:58;;;;;;;11.83;10.70;;;14.60;99.90;;;;;;4990511;28;20481;-51
2021/08/25 01:49:23;;;;;;;9.80;8.80;;;14.70;99.90;;;;;;4983263;28;20650;-51
2021/08/25 01:51:49;;;;;;;9.43;8.57;;;14.60;99.90;;;;;;4988500;28;20515;-51
2021/08/25 01:54:15;;;;;;;11.33;10.13;;;14.50;99.90;;;;;;4990563;28;20246;-51
2021/08/25 01:56:42;;;;;;;11.37;9.57;;;14.40;99.90;;;;;;4988053;28;20219;-50
2021/08/25 01:59:08;;;;;;;10.27;9.18;;;14.70;99.90;;;;;;4992759;28;20234;-51
2021/08/25 02:01:33;;;;;;;12.05;10.95;;;14.60;99.90;;;;;;4993918;28;20190;-52
2021/08/25 02:04:01;;;;;;;11.57;10.37;;;14.40;99.90;;;;;;4994495;28;20274;-50
2021/08/25 02:06:27;;;;;;;11.95;10.77;;;14.20;99.90;;;;;;4990248;28;20711;-50
2021/08/25 02:08:52;;;;;;;11.53;10.53;;;14.20;99.90;;;;;;4993707;28;20202;-51
2021/08/25 02:11:18;;;;;;;11.43;10.37;;;14.00;99.90;;;;;;4990742;28;20283;-51
2021/08/25 02:13:44;;;;;;;10.17;9.27;;;13.80;99.90;;;;;;4993948;28;20439;-50
2021/08/25 02:16:09;;;;;;;10.13;9.27;;;14.10;99.90;;;;;;4993394;28;20310;-50
2021/08/25 02:18:35;;;;;;;10.90;9.60;;;14.10;99.90;;;;;;4992607;28;20223;-50
2021/08/25 02:21:01;;;;;;;12.33;10.90;;;14.20;99.90;;;;;;4991727;28;20242;-50
2021/08/25 02:23:26;;;;;;;11.43;10.33;;;14.10;99.90;;;;;;4993518;28;20257;-51
2021/08/25 02:25:52;;;;;;;11.00;10.00;;;14.30;99.90;;;;;;4989783;28;20294;-50
2021/08/25 02:28:17;;;;;;;10.97;9.97;;;14.20;99.90;;;;;;4990016;28;20184;-50
2021/08/25 02:30:43;;;;;;;9.80;9.00;;;14.30;99.90;;;;;;4993137;28;20711;-50
2021/08/25 02:33:08;;;;;;;10.60;9.50;;;14.10;99.90;;;;;;4993715;28;20191;-50
2021/08/25 02:35:34;;;;;;;10.70;9.67;;;14.20;99.90;;;;;;4989856;28;20220;-50
2021/08/25 02:38:00;;;;;;;9.77;8.87;;;14.30;99.90;;;;;;4991672;28;20220;-50
2021/08/25 02:40:25;;;;;;;10.47;9.37;;;14.00;99.90;;;;;;4992386;28;20660;-51
2021/08/25 02:42:51;;;;;;;10.40;9.40;;;14.20;99.90;;;;;;4989598;28;20188;-50
2021/08/25 02:45:17;;;;;;;10.83;9.83;;;13.90;99.90;;;;;;4992929;28;20198;-51
2021/08/25 02:47:43;;;;;;;10.53;9.53;;;14.10;99.90;;;;;;4993162;28;20278;-51
2021/08/25 02:50:09;;;;;;;10.77;9.67;;;14.00;99.90;;;;;;4988269;28;20540;-51
2021/08/25 02:52:35;;;;;;;11.10;10.07;;;14.30;99.90;;;;;;4993121;28;20191;-51
2021/08/25 02:55:01;;;;;;;11.23;10.05;;;14.30;99.90;;;;;;4993174;28;20641;-51
2021/08/25 02:57:26;;;;;;;11.03;9.80;;;13.70;99.90;;;;;;4990864;28;20246;-50
2021/08/25 02:59:52;;;;;;;11.60;10.50;;;14.10;99.90;;;;;;4991382;28;20184;-51
2021/08/25 03:02:18;;;;;;;11.70;10.57;;;14.10;99.90;;;;;;4992503;28;20187;-51
2021/08/25 03:04:43;;;;;;;11.30;10.20;;;14.00;99.90;;;;;;4984930;28;20549;-51
2021/08/25 03:07:09;;;;;;;12.20;10.97;;;14.00;99.90;;;;;;4986519;28;20262;-50
2021/08/25 03:09:34;;;;;;;11.00;10.10;;;14.00;99.90;;;;;;4991830;28;20192;-51
2021/08/25 03:12:00;;;;;;;11.87;10.80;;;14.10;99.90;;;;;;4989086;28;20183;-51
2021/08/25 03:14:26;;;;;;;12.67;11.50;;;14.20;99.90;;;;;;4992483;28;20214;-51
2021/08/25 03:16:51;;;;;;;10.70;9.73;;;14.00;99.90;;;;;;4990479;28;20318;-51
2021/08/25 03:19:17;;;;;;;11.90;10.67;;;13.90;99.90;;;;;;4991201;28;20210;-51
2021/08/25 03:21:42;;;;;;;12.00;10.93;;;14.00;99.90;;;;;;4987622;28;20956;-51
2021/08/25 03:24:09;;;;;;;11.73;10.57;;;13.90;99.90;;;;;;4991729;28;20191;-51
2021/08/25 03:26:36;;;;;;;14.50;10.38;;;13.60;99.90;;;;;;4986738;28;20223;-51
2021/08/25 03:29:02;;;;;;;11.27;10.23;;;14.00;99.90;;;;;;4992825;28;20176;-51
2021/08/25 03:31:28;;;;;;;11.68;10.48;;;13.80;99.90;;;;;;4992952;28;20206;-51
2021/08/25 03:33:53;;;;;;;12.20;10.93;;;13.60;99.90;;;;;;4992817;28;20549;-51
2021/08/25 03:36:19;;;;;;;11.77;10.67;;;13.50;99.90;;;;;;4989955;28;20834;-51
2021/08/25 03:38:44;;;;;;;11.80;10.70;;;13.50;99.90;;;;;;4991063;28;20183;-51
2021/08/25 03:41:10;;;;;;;12.03;10.80;;;13.70;99.90;;;;;;4987355;28;20185;-51
2021/08/25 03:43:36;;;;;;;12.77;11.57;;;13.40;99.90;;;;;;4992085;28;20574;-50
2021/08/25 03:46:01;;;;;;;12.17;10.93;;;13.50;99.90;;;;;;4992096;28;20227;-50
2021/08/25 03:48:27;;;;;;;13.07;11.67;;;13.20;99.90;;;;;;4991536;28;20250;-50
2021/08/25 03:50:52;;;;;;;12.00;10.80;;;13.50;99.90;;;;;;4990428;28;20200;-51
2021/08/25 03:53:18;;;;;;;12.47;11.17;;;13.10;99.90;;;;;;4992089;28;20179;-51
2021/08/25 03:55:44;;;;;;;14.03;12.17;;;13.20;99.90;;;;;;4989693;28;20270;-50
2021/08/25 03:58:09;;;;;;;12.37;10.80;;;13.50;99.90;;;;;;4990706;28;20262;-51
2021/08/25 04:00:35;;;;;;;11.87;10.57;;;13.50;99.90;;;;;;4989129;28;20194;-51
2021/08/25 04:03:00;;;;;;;13.70;12.40;;;13.20;99.90;;;;;;4991319;28;20195;-50
2021/08/25 04:05:26;;;;;;;13.00;11.70;;;13.20;99.90;;;;;;4989383;28;20194;-51
2021/08/25 04:07:52;;;;;;;12.47;11.27;;;13.20;99.90;;;;;;4991275;28;20311;-50
2021/08/25 04:10:17;;;;;;;13.10;11.80;;;13.00;99.90;;;;;;4991505;28;20204;-51
2021/08/25 04:12:43;;;;;;;12.50;11.20;;;13.20;99.90;;;;;;4986447;28;20184;-50
2021/08/25 04:15:09;;;;;;;12.60;11.33;;;13.10;99.90;;;;;;4991376;28;20594;-50
2021/08/25 04:17:34;;;;;;;13.50;11.40;;;13.10;99.90;;;;;;4991183;28;20557;-51
2021/08/25 04:20:00;;;;;;;12.83;11.63;;;13.20;99.90;;;;;;4991359;28;20555;-51
2021/08/25 04:22:26;;;;;;;12.25;11.13;;;13.10;99.90;;;;;;4987600;28;20198;-51
2021/08/25 04:24:52;;;;;;;13.10;11.80;;;13.00;99.90;;;;;;4991512;28;20193;-51
2021/08/25 04:27:17;;;;;;;12.40;10.83;;;13.00;99.90;;;;;;4985769;28;20218;-51
2021/08/25 04:29:43;;;;;;;12.40;11.20;;;13.10;99.90;;;;;;4991402;28;20182;-51
2021/08/25 04:32:09;;;;;;;12.50;11.20;;;13.00;99.90;;;;;;4990811;28;20442;-50
2021/08/25 04:34:35;;;;;;;12.48;10.38;;;12.50;99.90;;;;;;4983322;28;20242;-50
2021/08/25 04:37:00;;;;;;;13.93;11.50;;;13.10;99.90;;;;;;4990118;28;20218;-50
2021/08/25 04:39:26;;;;;;;13.10;11.70;;;13.20;99.90;;;;;;4988017;28;20186;-50
2021/08/25 04:41:52;;;;;;;15.10;11.87;;;13.00;99.90;;;;;;4989555;28;20201;-50
2021/08/25 04:44:17;;;;;;;12.13;10.97;;;12.90;99.90;;;;;;4990088;28;20442;-50
2021/08/25 04:46:43;;;;;;;12.13;11.03;;;13.00;99.90;;;;;;4990364;28;20658;-50
2021/08/25 04:49:08;;;;;;;13.33;11.33;;;12.60;99.90;;;;;;4987561;28;20193;-50
2021/08/25 04:51:34;;;;;;;13.87;11.83;;;13.00;99.90;;;;;;4989398;28;20182;-50
2021/08/25 04:54:00;;;;;;;11.43;10.23;;;13.00;99.90;;;;;;4990539;28;20190;-50
2021/08/25 04:56:25;;;;;;;12.83;10.83;;;12.80;99.90;;;;;;4987644;28;20928;-50
2021/08/25 04:58:51;;;;;;;12.40;11.20;;;13.10;99.90;;;;;;4990090;28;20186;-50
2021/08/25 05:01:16;;;;;;;15.90;14.13;;;12.90;99.90;;;;;;4989092;28;20195;-50
2021/08/25 05:03:42;;;;;;;14.50;13.10;;;13.00;99.90;;;;;;4989494;28;20681;-50
2021/08/25 05:06:11;;;;;;;12.73;11.43;;;12.90;99.90;;;;;;4985629;28;20820;-50
2021/08/25 05:08:38;;;;;;;14.45;12.35;;;13.10;99.90;;;;;;4990106;28;20187;-49
2021/08/25 05:11:04;;;;;;;13.55;12.25;;;12.90;99.90;;;;;;4986489;28;20249;-50
2021/08/25 05:13:31;;;;;;;15.00;13.50;;;12.80;99.90;;;;;;4985521;28;21049;-54
2021/08/25 05:15:57;;;;;;;13.43;12.13;;;13.00;99.90;;;;;;4987111;28;20202;-53
2021/08/25 05:18:22;;;;;;;13.60;11.18;;;12.90;99.90;;;;;;4986055;28;20195;-54
2021/08/25 05:20:48;;;;;;;13.43;12.13;;;13.00;99.90;;;;;;4989911;28;20197;-53
2021/08/25 05:23:14;;;;;;;12.93;11.63;;;13.10;99.90;;;;;;4990172;28;20205;-54
2021/08/25 05:25:39;;;;;;;12.80;11.30;;;13.00;99.90;;;;;;4980145;28;20679;-54
2021/08/25 05:28:05;;;;;;;12.87;11.60;;;12.80;99.90;;;;;;4989263;28;20206;-54
2021/08/25 05:30:30;;;;;;;12.20;11.00;;;13.20;99.90;;;;;;4988592;28;20188;-51
2021/08/25 05:32:56;;;;;;;12.87;11.60;;;13.10;99.90;;;;;;4992129;28;20278;-51
2021/08/25 05:35:23;;;;;;;12.40;11.10;;;12.90;99.90;;;;;;4992495;28;20321;-51
2021/08/25 05:37:50;;;;;;;12.70;11.50;;;13.40;99.90;;;;;;4994035;28;20313;-51
2021/08/25 05:40:16;;;;;;;12.52;11.20;;;13.40;99.90;;;;;;4994188;28;20655;-51
2021/08/25 05:42:42;;;;;;;12.93;11.63;;;13.50;99.90;;;;;;4991337;28;20241;-51
2021/08/25 05:45:08;;;;;;;13.23;12.00;;;13.60;99.90;;;;;;4993612;28;20552;-51
2021/08/25 05:47:35;;;;;;;12.57;11.38;;;13.70;99.90;;;;;;4994126;28;20298;-53
2021/08/25 05:50:00;;;;;;;12.68;11.05;;;13.80;99.90;;;;;;4986563;28;20197;-51
2021/08/25 05:52:26;;;;;;;13.50;12.10;;;13.90;99.90;;;;;;4987906;28;20302;-49
2021/08/25 05:54:51;;;;;;;15.70;11.90;;;14.00;99.90;;;;;;4986591;28;20757;-48
2021/08/25 05:57:17;;;;;;;12.73;11.53;;;14.30;99.90;;;;;;4989899;28;20211;-50
2021/08/25 05:59:43;;;;;;;12.90;11.70;;;14.30;99.90;;;;;;4993707;28;20211;-50
2021/08/25 06:02:08;;;;;;;12.97;11.73;;;14.50;99.90;;;;;;4993316;28;20649;-49
2021/08/25 06:04:34;;;;;;;11.90;10.80;;;14.70;99.90;;;;;;4985731;28;20195;-50
2021/08/25 06:06:59;;;;;;;13.10;11.70;;;14.80;99.90;;;;;;4991458;28;20218;-48
2021/08/25 06:09:25;;;;;;;14.00;12.50;;;14.70;99.90;;;;;;4992809;28;20669;-50
2021/08/25 06:11:50;;;;;;;13.70;12.50;;;15.10;99.90;;;;;;4987681;28;20243;-50
2021/08/25 06:14:16;;;;;;;13.37;11.97;;;14.90;99.90;;;;;;4991110;28;20184;-50
2021/08/25 06:16:43;;;;;;;13.23;11.93;;;14.70;99.90;;;;;;4992748;28;20265;-50
2021/08/25 06:19:09;;;;;;;12.68;10.82;;;15.00;99.90;;;;;;4992915;28;20225;-49
2021/08/25 06:21:35;;;;;;;12.73;11.35;;;15.40;99.90;;;;;;4992051;28;20191;-50
2021/08/25 06:24:01;;;;;;;11.73;10.63;;;15.20;99.90;;;;;;4990453;28;20183;-50
2021/08/25 06:26:27;;;;;;;12.67;11.47;;;15.40;99.90;;;;;;4989512;28;20222;-51
2021/08/25 06:28:53;;;;;;;13.00;11.70;;;15.30;99.90;;;;;;4991910;28;20179;-51
2021/08/25 06:31:18;;;;;;;12.83;11.53;;;15.60;99.90;;;;;;4992242;28;20435;-49
2021/08/25 06:33:44;;;;;;;12.10;10.97;;;15.70;99.90;;;;;;4991232;28;20435;-49
2021/08/25 06:36:09;;;;;;;11.97;10.57;;;15.60;99.90;;;;;;4988132;28;20211;-49
2021/08/25 06:38:35;;;;;;;15.70;12.20;;;15.60;99.90;;;;;;4993250;28;20245;-49
2021/08/25 06:41:01;;;;;;;12.60;11.30;;;15.90;99.90;;;;;;4989438;28;20183;-50
2021/08/25 06:43:27;;;;;;;13.13;11.93;;;15.90;99.90;;;;;;4992638;28;20681;-49
2021/08/25 06:45:52;;;;;;;12.73;10.40;;;16.00;99.90;;;;;;4993136;28;20688;-49
2021/08/25 06:48:18;;;;;;;11.93;10.37;;;15.90;99.90;;;;;;4992681;28;20439;-52
2021/08/25 06:50:43;;;;;;;11.43;9.97;;;16.00;99.90;;;;;;4992705;28;20213;-49
2021/08/25 06:53:09;;;;;;;11.50;10.30;;;16.20;99.90;;;;;;4992821;28;20198;-48
2021/08/25 06:55:34;;;;;;;10.80;9.90;;;16.30;99.90;;;;;;4990698;28;20191;-49
2021/08/25 06:58:00;;;;;;;11.17;10.07;;;16.20;99.90;;;;;;4992554;28;20640;-50
2021/08/25 07:00:26;;;;;;;10.70;9.63;;;16.20;99.90;;;;;;4990398;28;20196;-49
2021/08/25 07:02:51;;;;;;;11.10;10.00;;;16.30;99.90;;;;;;4992508;28;20192;-50
2021/08/25 07:05:17;;;;;;;10.80;9.70;;;16.60;99.90;;;;;;4987937;28;20179;-50
2021/08/25 07:07:43;;;;;;;11.70;10.63;;;17.00;99.90;;;;;;4987591;28;20214;-51
2021/08/25 07:10:09;;;;;;;10.53;9.53;;;17.50;99.90;;;;;;4991878;28;20211;-50
2021/08/25 07:12:34;;;;;;;9.88;8.98;;;18.40;99.90;;;;;;4987324;28;20578;-50
2021/08/25 07:15:00;;;;;;;8.90;8.10;;;20.20;99.90;;;;;;4991449;28;20203;-50
2021/08/25 07:17:25;;;;;;;9.40;8.40;;;21.70;98.00;;;;;;4990936;28;20273;-50
2021/08/25 07:19:51;;;;;;;9.73;7.57;;;22.20;94.40;;;;;;4988557;28;20204;-50
2021/08/25 07:22:18;;;;;;;8.77;7.97;;;24.60;92.50;;;;;;4989722;28;20668;-51
2021/08/25 07:24:44;;;;;;;8.80;8.00;;;25.80;86.10;;;;;;4990847;28;20211;-51
2021/08/25 07:27:09;;;;;;;8.07;7.30;;;27.30;80.40;;;;;;4988587;28;20985;-51
2021/08/25 07:29:35;;;;;;;7.40;6.57;;;28.60;73.00;;;;;;4991453;28;20179;-50
2021/08/25 07:32:01;;;;;;;8.37;7.70;;;28.60;71.20;;;;;;4992890;28;20193;-51
2021/08/25 07:34:28;;;;;;;7.27;6.73;;;28.70;69.60;;;;;;4990389;28;20187;-50
2021/08/25 07:36:53;;;;;;;7.37;6.83;;;29.60;66.00;;;;;;4993073;28;20281;-51
2021/08/25 07:39:19;;;;;;;7.80;7.17;;;30.60;63.10;;;;;;4993244;28;20485;-52
2021/08/25 07:41:44;;;;;;;7.83;7.23;;;31.80;59.90;;;;;;4992604;28;20605;-52
2021/08/25 07:44:10;;;;;;;7.87;7.17;;;32.00;57.40;;;;;;4993279;28;20179;-53
2021/08/25 07:46:35;;;;;;;7.80;7.10;;;30.30;58.40;;;;;;4992703;28;20709;-51
2021/08/25 07:49:02;;;;;;;7.30;6.80;;;30.90;58.70;;;;;;4988215;28;20180;-51
2021/08/25 07:51:29;;;;;;;7.17;6.67;;;32.00;57.20;;;;;;4993321;28;20183;-51
2021/08/25 07:53:55;;;;;;;6.90;6.40;;;32.40;54.70;;;;;;4995812;28;20531;-51
2021/08/25 07:56:20;;;;;;;8.73;6.63;;;33.00;54.90;;;;;;4992300;28;20951;-51
2021/08/25 07:58:46;;;;;;;7.50;7.00;;;33.60;52.60;;;;;;4992805;28;20434;-50
2021/08/25 08:01:12;;;;;;;8.30;7.60;;;32.10;53.40;;;;;;4992026;28;20199;-51
2021/08/25 08:03:38;;;;;;;7.37;6.67;;;31.50;55.10;;;;;;4991040;28;20191;-52
2021/08/25 08:06:03;;;;;;;8.00;7.30;;;31.80;54.50;;;;;;4989784;28;20485;-51
2021/08/25 08:08:29;;;;;;;6.77;6.17;;;32.70;53.80;;;;;;4991189;28;20188;-51
2021/08/25 08:10:55;;;;;;;7.23;6.63;;;32.60;52.90;;;;;;4988336;28;20266;-52
2021/08/25 08:13:20;;;;;;;6.43;5.93;;;31.80;53.30;;;;;;4988041;28;20219;-50
2021/08/25 08:15:46;;;;;;;7.27;6.67;;;32.30;53.20;;;;;;4991524;28;20233;-50
2021/08/25 08:18:19;;;;;;;8.13;6.00;;;32.50;52.80;;;;;;4991415;28;20604;-50
2021/08/25 08:20:45;;;;;;;8.07;7.27;;;32.30;52.40;;;;;;4989034;28;20512;-51
2021/08/25 08:23:11;;;;;;;7.50;6.90;;;31.60;53.10;;;;;;4991974;28;20868;-51
2021/08/25 08:25:37;;;;;;;7.33;6.60;;;29.10;56.90;;;;;;4989984;28;20466;-52
2021/08/25 08:28:03;;;;;;;6.87;6.27;;;30.40;56.10;;;;;;4984832;28;20201;-50
2021/08/25 08:30:30;;;;;;;6.27;5.53;;;30.20;56.20;;;;;;4991192;28;20508;-52
2021/08/25 08:32:56;;;;;;;6.27;5.77;;;31.10;54.90;;;;;;4985171;28;20543;-52
2021/08/25 08:35:21;;;;;;;6.10;5.60;;;30.90;55.10;;;;;;4982291;28;20466;-52
2021/08/25 08:37:47;;;;;;;8.53;7.20;;;30.90;54.10;;;;;;4990741;28;20218;-50
2021/08/25 08:40:13;;;;;;;6.07;5.57;;;30.60;55.40;;;;;;4990297;28;20645;-51
2021/08/25 08:42:38;;;;;;;8.23;7.53;;;31.40;54.40;;;;;;4989080;28;20195;-52
2021/08/25 08:45:05;;;;;;;6.27;5.77;;;32.30;53.20;;;;;;4989709;28;20191;-50
2021/08/25 08:47:31;;;;;;;7.83;7.23;;;32.60;51.00;;;;;;4984146;28;20362;-50
2021/08/25 08:49:59;;;;;;;6.70;6.10;;;32.60;50.70;;;;;;4989359;28;20442;-50
2021/08/25 08:52:26;;;;;;;6.73;6.20;;;31.50;51.60;;;;;;4983115;28;20936;-50
2021/08/25 08:54:54;;;;;;;6.63;6.13;;;30.90;52.40;;;;;;4990125;28;20453;-50
2021/08/25 08:57:20;;;;;;;5.43;4.97;;;31.50;52.80;;;;;;4989047;28;20540;-51
2021/08/25 08:59:46;;;;;;;5.20;4.80;;;32.40;50.50;;;;;;4990561;28;20446;-50
2021/08/25 09:02:13;;;;;;;4.97;4.60;;;32.30;49.70;;;;;;4990243;28;20944;-52
2021/08/25 09:04:43;;;;;;;5.53;5.13;;;32.40;50.00;;;;;;4987844;28;20266;-51
2021/08/25 09:07:19;;;;;;;5.43;4.93;;;32.90;49.50;;;;;;4991635;28;20471;-51
2021/08/25 09:10:00;;;;;;;5.70;5.20;;;33.40;48.10;;;;;;4992551;28;20431;-51
2021/08/25 09:12:26;;;;;;;5.30;4.90;;;32.50;48.30;;;;;;4981454;28;20795;-50
2021/08/25 09:14:51;;;;;;;4.37;4.07;;;31.20;48.70;;;;;;4990335;28;20445;-50
2021/08/25 09:17:30;;;;;;;4.70;4.30;;;30.60;50.30;;;;;;4991502;28;20238;-51
2021/08/25 09:20:09;;;;;;;5.07;4.57;;;30.10;52.00;;;;;;4991624;28;20768;-50
2021/08/25 09:22:35;;;;;;;6.03;4.77;;;28.20;54.40;;;;;;4988488;28;20433;-51
2021/08/25 09:25:02;;;;;;;5.43;4.93;;;27.90;57.00;;;;;;4991904;28;20515;-51
2021/08/25 09:27:28;;;;;;;6.03;5.43;;;27.20;57.90;;;;;;4978248;28;20489;-52
2021/08/25 09:29:57;;;;;;;6.23;5.70;;;26.30;61.60;;;;;;4987672;28;20449;-51
2021/08/25 09:32:24;;;;;;;5.60;5.10;;;25.60;64.40;;;;;;4990368;28;20238;-51
2021/08/25 09:34:58;;;;;;;5.87;5.37;;;25.10;65.60;;;;;;4982568;28;20856;-49
2021/08/25 09:37:25;;;;;;;6.23;5.63;;;24.20;67.20;;;;;;4986808;28;20859;-49
2021/08/25 09:39:53;;;;;;;7.13;5.73;;;24.10;70.80;;;;;;4988789;28;20574;-49
2021/08/25 09:42:20;;;;;;;7.63;6.97;;;23.90;71.70;;;;;;4989112;28;20453;-49
2021/08/25 09:45:09;;;;;;;6.10;5.60;;;23.40;71.90;;;;;;4983167;28;20476;-49
2021/08/25 09:47:52;;;;;;;5.53;5.10;;;23.30;72.40;;;;;;4982271;28;21025;-49
2021/08/25 09:50:21;;;;;;;5.90;5.40;;;23.20;73.00;;;;;;4988285;28;20569;-48
2021/08/25 09:52:48;;;;;;;5.70;5.20;;;22.90;73.80;;;;;;4987707;28;20478;-49
2021/08/25 09:55:14;;;;;;;6.17;5.67;;;23.00;73.90;;;;;;4987177;28;21194;-49
2021/08/25 09:57:44;;;;;;;6.10;5.60;;;23.20;74.80;;;;;;4982405;28;20829;-49
2021/08/25 10:00:12;;;;;;;6.30;5.10;;;23.40;75.10;;;;;;4989022;28;20431;-49
2021/08/25 10:02:40;;;;;;;5.93;5.43;;;23.50;74.70;;;;;;4989038;28;20464;-50
2021/08/25 10:05:06;;;;;;;5.60;5.10;;;23.40;74.60;;;;;;4986774;28;20500;-49
2021/08/25 10:07:34;;;;;;;5.87;5.37;;;23.50;74.40;;;;;;4982703;28;20895;-49
2021/08/25 10:09:59;;;;;;;6.37;5.20;;;23.30;74.90;;;;;;4988645;28;20439;-49
2021/08/25 10:12:25;;;;;;;5.53;5.03;;;23.10;76.70;;;;;;4986060;28;20449;-49
2021/08/25 10:14:51;;;;;;;11.50;10.30;;;23.20;77.80;;;;;;4989011;28;20184;-49
2021/08/25 10:17:42;;;;;;;5.30;4.80;;;23.00;74.50;;;;;;4989435;28;20207;-49
2021/08/25 10:20:23;;;;;;;5.23;4.73;;;23.10;73.90;;;;;;4991351;28;20226;-49
2021/08/25 10:22:49;;;;;;;5.27;4.80;;;23.20;73.60;;;;;;4991190;28;20500;-49
2021/08/25 10:25:14;;;;;;;5.30;4.80;;;23.20;73.50;;;;;;4993419;28;20968;-48
2021/08/25 10:27:59;;;;;;;5.67;4.70;;;23.20;73.40;;;;;;4979785;28;20478;-49
2021/08/25 10:30:24;;;;;;;4.70;4.30;;;23.20;73.80;;;;;;4992058;28;20188;-49
2021/08/25 10:32:50;;;;;;;5.00;4.50;;;23.20;71.80;;;;;;4993198;28;20430;-49
2021/08/25 10:35:19;;;;;;;4.90;4.50;;;23.00;71.10;;;;;;4989760;28;20646;-49
2021/08/25 10:37:47;;;;;;;4.67;4.17;;;22.90;72.90;;;;;;4992468;28;20215;-49
2021/08/25 10:40:14;;;;;;;5.03;4.63;;;23.00;72.90;;;;;;4991872;28;20445;-49
2021/08/25 10:42:47;;;;;;;4.57;3.87;;;23.10;69.90;;;;;;4982871;28;20445;-49
2021/08/25 10:45:14;;;;;;;4.70;4.30;;;23.10;69.80;;;;;;4992127;28;20446;-49
2021/08/25 10:48:02;;;;;;;5.80;5.30;;;23.20;71.20;;;;;;4992164;28;20478;-49
2021/08/25 10:51:03;;;;;;;4.37;3.93;;;23.10;69.70;;;;;;4987102;28;20490;-49
2021/08/25 10:53:29;;;;;;;4.73;4.33;;;23.00;68.80;;;;;;4950694;29;20446;-49
2021/08/25 10:56:09;;;;;;;5.00;4.50;;;22.90;69.70;;;;;;4972081;28;20475;-49
2021/08/25 10:59:03;;;;;;;4.60;4.20;;;22.70;67.60;;;;;;4987931;28;20661;-48
2021/08/25 11:01:38;;;;;;;5.82;4.68;;;22.50;66.70;;;;;;4990300;28;20261;-48
2021/08/25 11:04:15;;;;;;;4.30;3.90;;;22.40;67.50;;;;;;4992848;28;20676;-48
2021/08/25 11:06:42;;;;;;;4.75;4.28;;;22.40;67.80;;;;;;4981479;28;20537;-48
2021/08/25 11:09:11;;;;;;;4.90;4.17;;;22.50;68.40;;;;;;4992123;28;20183;-48
2021/08/25 11:11:37;;;;;;;4.73;4.30;;;22.80;68.30;;;;;;4988169;28;20522;-48
2021/08/25 11:14:02;;;;;;;4.47;4.10;;;23.30;69.10;;;;;;4986192;28;21039;-48
2021/08/25 11:16:28;;;;;;;5.10;4.00;;;23.50;67.70;;;;;;4987111;28;20206;-48
2021/08/25 11:18:54;;;;;;;5.43;4.87;;;23.40;67.50;;;;;;4985771;28;20262;-52
2021/08/25 11:21:19;;;;;;;4.53;4.13;;;23.40;67.80;;;;;;4991051;28;20669;-51
2021/08/25 11:23:55;;;;;;;4.60;4.20;;;23.40;68.80;;;;;;4991511;28;20203;-52
2021/08/25 11:26:21;;;;;;;5.07;4.40;;;23.30;67.80;;;;;;4985701;28;20238;-50
2021/08/25 11:28:47;;;;;;;5.20;4.73;;;23.20;69.70;;;;;;4991535;28;20439;-50
2021/08/25 11:31:14;;;;;;;4.53;4.10;;;23.20;71.20;;;;;;4991350;28;20508;-51
2021/08/25 11:33:46;;;;;;;5.30;4.80;;;23.10;71.80;;;;;;4991490;28;20287;-50
2021/08/25 11:36:12;;;;;;;5.37;4.87;;;22.90;74.50;;;;;;4990487;28;20474;-52
2021/08/25 11:38:37;;;;;;;6.97;5.50;;;22.90;73.70;;;;;;4991441;28;20450;-50
2021/08/25 11:41:03;;;;;;;5.07;4.57;;;23.10;73.20;;;;;;4987909;28;20454;-50
2021/08/25 11:43:29;;;;;;;4.80;4.40;;;23.30;71.30;;;;;;4986873;28;20699;-51
2021/08/25 11:45:56;;;;;;;4.77;4.27;;;23.30;70.90;;;;;;4984263;28;20261;-50
2021/08/25 11:48:30;;;;;;;5.67;5.17;;;22.80;69.30;;;;;;4982292;28;20246;-50
2021/08/25 11:50:57;;;;;;;7.07;5.77;;;22.70;70.90;;;;;;4989830;28;20492;-50
2021/08/25 11:53:25;;;;;;;5.23;4.73;;;22.60;71.40;;;;;;4979261;28;20527;-50
2021/08/25 11:55:53;;;;;;;6.33;5.73;;;22.90;70.40;;;;;;4988108;28;20831;-49
2021/08/25 11:58:27;;;;;;;6.13;4.97;;;23.00;69.20;;;;;;4984109;28;20470;-50
2021/08/25 12:00:55;;;;;;;5.13;4.73;;;23.10;69.50;;;;;;4985284;28;20532;-50
2021/08/25 12:03:36;;;;;;;5.53;4.43;;;23.00;66.70;;;;;;4989465;28;20453;-50
2021/08/25 12:06:01;;;;;;;4.97;4.47;;;22.90;67.30;;;;;;4992078;28;20573;-51
2021/08/25 12:08:41;;;;;;;4.90;4.50;;;22.80;67.20;;;;;;4991209;28;20843;-50
2021/08/25 12:11:08;;;;;;;4.70;4.30;;;22.60;65.80;;;;;;4988108;28;20206;-51
2021/08/25 12:13:36;;;;;;;4.50;4.10;;;22.50;64.30;;;;;;4986227;28;20184;-51
2021/08/25 12:16:07;;;;;;;5.35;4.55;;;22.50;64.20;;;;;;4989267;28;20981;-50
2021/08/25 12:18:48;;;;;;;5.10;4.60;;;22.60;64.30;;;;;;4989122;28;20196;-51
2021/08/25 12:21:14;;;;;;;4.80;4.27;;;22.70;65.40;;;;;;4990438;28;20455;-52
2021/08/25 12:23:59;;;;;;;4.93;4.43;;;22.80;66.40;;;;;;4986715;28;20972;-52
2021/08/25 12:26:27;;;;;;;5.07;4.53;;;22.90;67.30;;;;;;4988047;28;20484;-51
2021/08/25 12:28:52;;;;;;;4.60;4.20;;;23.10;67.70;;;;;;4991719;28;20525;-51
2021/08/25 12:31:24;;;;;;;5.00;4.33;;;23.20;67.90;;;;;;4991302;28;20547;-51
2021/08/25 12:34:14;;;;;;;7.00;4.40;;;23.40;67.10;;;;;;4987393;28;20451;-51
2021/08/25 12:36:52;;;;;;;5.43;4.57;;;23.40;64.90;;;;;;4985512;28;20499;-51
2021/08/25 12:39:22;;;;;;;4.47;3.90;;;23.10;64.10;;;;;;4991189;28;20438;-50